Orofino, Idaho
Current Conditions -  °F | °C
As of 11:56 AM on Sunday 23 Nov 2014 (Local Time) from KLWS Reporting Station
Overcast Overcast  
Wind Chill: 42°   Ceiling: 7500
Heat Index: 47°   Visibility: 10mi
Dew Point: 35°   Wind: 12mph
Humidity: 63%   Direction: 200°SSW
Pressure: 30.13"   Gusts: NA
Location:  46.48°N, 116.26°W
Report Text: KLWS 231956Z 20010KT 10SM SCT060 BKN075 OVC100 08/02 A3013 RMK AO2 SLP208 T00830017
Loading
Personal Weather Stations






























Interactive Weather Map New forecast layout! Learn more

10-Day Weather Forecast

Advertisements
Track Severe Weather on mobile